Terminal Aerodrome Forecast
Issued by NWS Shreveport, LA

Home | Current Version | Previous Version | Text Only | Print | Product List | Glossary On
Versions: 1 2 3 4 5 6 7 8 9 10 11 12 13 14 15
000
FTUS44 KSHV 260529
TAFMLU
TAF
KMLU 260529Z 2606/2706 00000KT P6SM SKC
     FM261600 25007KT P6SM FEW035 SCT250
     FM262000 21006KT P6SM FEW035 SCT250
     FM270000 VRB03KT P6SM FEW250=

USA.gov is the U.S. government's official web portal to all federal, state and local government web resources and services.